Terminal Aerodrome Forecast
Issued by NWS Wilmington, NC

Home | Current Version | Previous Version | Text Only | Print | Product List | Glossary On
Versions: 1 2 3 4 5 6 7 8 9 10 11 12 13 14 15 16 17 18 19 20 21 22 23
000
FTUS42 KILM 230541
TAFLBT
TAF
KLBT 230541Z 2306/2406 20006KT P6SM BKN008 OVC150
      TEMPO 2306/2309 SCT008
     FM231500 23011G22KT P6SM SCT025 BKN100
     FM231700 20011G18KT P6SM SCT100=

USA.gov is the U.S. government's official web portal to all federal, state and local government web resources and services.